sensor_id;sensor_type;location;lat;lon;timestamp;temperature;humidity
17202;DHT22;8717;53.588;10.176;2023-02-08T00:00:51;-4.20;99.90
17202;DHT22;8717;53.588;10.176;2023-02-08T00:03:18;-4.20;99.90
17202;DHT22;8717;53.588;10.176;2023-02-08T00:05:45;-4.30;99.90
17202;DHT22;8717;53.588;10.176;2023-02-08T00:08:14;-4.30;99.90
17202;DHT22;8717;53.588;10.176;2023-02-08T00:10:43;-4.30;99.90
17202;DHT22;8717;53.588;10.176;2023-02-08T00:13:10;-4.30;99.90
17202;DHT22;8717;53.588;10.176;2023-02-08T00:15:40;-4.30;99.90
17202;DHT22;8717;53.588;10.176;2023-02-08T00:18:07;-4.30;99.90
17202;DHT22;8717;53.588;10.176;2023-02-08T00:20:34;-4.30;99.90
17202;DHT22;8717;53.588;10.176;2023-02-08T00:23:01;-4.30;99.90
17202;DHT22;8717;53.588;10.176;2023-02-08T00:25:29;-4.30;99.90
17202;DHT22;8717;53.588;10.176;2023-02-08T00:27:55;-4.30;99.90
17202;DHT22;8717;53.588;10.176;2023-02-08T00:30:22;-4.30;99.90
17202;DHT22;8717;53.588;10.176;2023-02-08T00:32:49;-4.30;99.90
17202;DHT22;8717;53.588;10.176;2023-02-08T00:35:17;-4.30;99.90
17202;DHT22;8717;53.588;10.176;2023-02-08T00:37:43;-4.30;99.90
17202;DHT22;8717;53.588;10.176;2023-02-08T00:40:11;-4.30;99.90
17202;DHT22;8717;53.588;10.176;2023-02-08T00:42:39;-4.30;99.90
17202;DHT22;8717;53.588;10.176;2023-02-08T00:45:06;-4.30;99.90
17202;DHT22;8717;53.588;10.176;2023-02-08T00:47:33;-4.40;99.90
17202;DHT22;8717;53.588;10.176;2023-02-08T00:50:00;-4.40;99.90
17202;DHT22;8717;53.588;10.176;2023-02-08T00:52:28;-4.30;99.90
17202;DHT22;8717;53.588;10.176;2023-02-08T00:54:55;-4.40;99.90
17202;DHT22;8717;53.588;10.176;2023-02-08T00:57:22;-4.40;99.90
17202;DHT22;8717;53.588;10.176;2023-02-08T00:59:53;-4.40;99.90
17202;DHT22;8717;53.588;10.176;2023-02-08T01:02:20;-4.40;99.90
17202;DHT22;8717;53.588;10.176;2023-02-08T01:04:47;-4.40;99.90
17202;DHT22;8717;53.588;10.176;2023-02-08T01:07:14;-4.40;99.90
17202;DHT22;8717;53.588;10.176;2023-02-08T01:09:40;-4.40;99.90
17202;DHT22;8717;53.588;10.176;2023-02-08T01:12:07;-4.30;99.90
17202;DHT22;8717;53.588;10.176;2023-02-08T01:14:36;-4.50;99.90
17202;DHT22;8717;53.588;10.176;2023-02-08T01:17:06;-4.50;99.90
17202;DHT22;8717;53.588;10.176;2023-02-08T01:19:33;-4.50;99.90
17202;DHT22;8717;53.588;10.176;2023-02-08T01:22:02;-4.50;99.90
17202;DHT22;8717;53.588;10.176;2023-02-08T01:24:28;-4.50;99.90
17202;DHT22;8717;53.588;10.176;2023-02-08T01:26:56;-4.60;99.90
17202;DHT22;8717;53.588;10.176;2023-02-08T01:29:23;-4.60;99.90
17202;DHT22;8717;53.588;10.176;2023-02-08T01:31:50;-4.60;99.90
17202;DHT22;8717;53.588;10.176;2023-02-08T01:34:18;-4.70;99.90
17202;DHT22;8717;53.588;10.176;2023-02-08T01:36:45;-4.70;99.90
17202;DHT22;8717;53.588;10.176;2023-02-08T01:39:12;-4.70;99.90
17202;DHT22;8717;53.588;10.176;2023-02-08T01:41:41;-4.80;99.90
17202;DHT22;8717;53.588;10.176;2023-02-08T01:47:10;-4.90;99.90
17202;DHT22;8717;53.588;10.176;2023-02-08T01:49:38;-4.90;99.90
17202;DHT22;8717;53.588;10.176;2023-02-08T01:52:09;-4.90;99.90
17202;DHT22;8717;53.588;10.176;2023-02-08T01:54:39;-4.90;99.90
17202;DHT22;8717;53.588;10.176;2023-02-08T01:57:08;-5.00;99.90
17202;DHT22;8717;53.588;10.176;2023-02-08T01:59:40;-5.00;99.90
17202;DHT22;8717;53.588;10.176;2023-02-08T02:02:12;-5.00;99.90
17202;DHT22;8717;53.588;10.176;2023-02-08T02:04:41;-5.00;99.90
17202;DHT22;8717;53.588;10.176;2023-02-08T02:07:08;-5.00;99.90
17202;DHT22;8717;53.588;10.176;2023-02-08T02:09:43;-5.00;99.90
17202;DHT22;8717;53.588;10.176;2023-02-08T02:12:10;-5.10;99.90
17202;DHT22;8717;53.588;10.176;2023-02-08T02:14:38;-5.00;99.90
17202;DHT22;8717;53.588;10.176;2023-02-08T02:17:06;-5.00;99.90
17202;DHT22;8717;53.588;10.176;2023-02-08T02:19:42;-5.00;99.90
17202;DHT22;8717;53.588;10.176;2023-02-08T02:22:38;-5.00;99.90
17202;DHT22;8717;53.588;10.176;2023-02-08T02:31:49;-5.00;99.90
17202;DHT22;8717;53.588;10.176;2023-02-08T02:34:22;-4.90;99.90
17202;DHT22;8717;53.588;10.176;2023-02-08T02:36:57;-4.90;99.90
17202;DHT22;8717;53.588;10.176;2023-02-08T02:39:34;-4.90;99.90
17202;DHT22;8717;53.588;10.176;2023-02-08T02:42:11;-4.90;99.90
17202;DHT22;8717;53.588;10.176;2023-02-08T02:45:04;-4.90;99.90
17202;DHT22;8717;53.588;10.176;2023-02-08T02:47:40;-4.90;99.90
17202;DHT22;8717;53.588;10.176;2023-02-08T02:50:15;-4.90;99.90
17202;DHT22;8717;53.588;10.176;2023-02-08T02:52:48;-4.90;99.90
17202;DHT22;8717;53.588;10.176;2023-02-08T02:55:20;-4.90;99.90
17202;DHT22;8717;53.588;10.176;2023-02-08T02:57:50;-4.90;99.90
17202;DHT22;8717;53.588;10.176;2023-02-08T03:00:21;-4.90;99.90
17202;DHT22;8717;53.588;10.176;2023-02-08T03:02:51;-4.90;99.90
17202;DHT22;8717;53.588;10.176;2023-02-08T03:05:18;-4.90;99.90
17202;DHT22;8717;53.588;10.176;2023-02-08T03:07:58;-5.00;99.90
17202;DHT22;8717;53.588;10.176;2023-02-08T03:10:48;-5.00;99.90
17202;DHT22;8717;53.588;10.176;2023-02-08T03:13:25;-5.00;99.90
17202;DHT22;8717;53.588;10.176;2023-02-08T03:16:01;-5.00;99.90
17202;DHT22;8717;53.588;10.176;2023-02-08T03:18:36;-5.00;99.90
17202;DHT22;8717;53.588;10.176;2023-02-08T03:21:10;-5.00;99.90
17202;DHT22;8717;53.588;10.176;2023-02-08T03:23:40;-5.10;99.90
17202;DHT22;8717;53.588;10.176;2023-02-08T03:26:15;-5.10;99.90
17202;DHT22;8717;53.588;10.176;2023-02-08T03:28:49;-5.10;99.90
17202;DHT22;8717;53.588;10.176;2023-02-08T03:31:25;-5.20;99.90
17202;DHT22;8717;53.588;10.176;2023-02-08T03:33:57;-5.20;99.90
17202;DHT22;8717;53.588;10.176;2023-02-08T03:36:32;-5.20;99.90
17202;DHT22;8717;53.588;10.176;2023-02-08T03:39:03;-5.20;99.90
17202;DHT22;8717;53.588;10.176;2023-02-08T03:41:33;-5.20;99.90
17202;DHT22;8717;53.588;10.176;2023-02-08T03:44:05;-5.30;99.90
17202;DHT22;8717;53.588;10.176;2023-02-08T03:46:37;-5.30;99.90
17202;DHT22;8717;53.588;10.176;2023-02-08T03:49:10;-5.30;99.90
17202;DHT22;8717;53.588;10.176;2023-02-08T03:51:38;-5.30;99.90
17202;DHT22;8717;53.588;10.176;2023-02-08T03:54:09;-5.40;99.90
17202;DHT22;8717;53.588;10.176;2023-02-08T03:56:42;-5.40;99.90
17202;DHT22;8717;53.588;10.176;2023-02-08T03:59:16;-5.40;99.90
17202;DHT22;8717;53.588;10.176;2023-02-08T04:01:48;-5.40;99.90
17202;DHT22;8717;53.588;10.176;2023-02-08T04:04:18;-5.40;99.90
17202;DHT22;8717;53.588;10.176;2023-02-08T04:06:46;-5.50;99.90
17202;DHT22;8717;53.588;10.176;2023-02-08T04:09:13;-5.40;99.90
17202;DHT22;8717;53.588;10.176;2023-02-08T04:11:40;-5.50;99.90
17202;DHT22;8717;53.588;10.176;2023-02-08T04:14:07;-5.50;99.90
17202;DHT22;8717;53.588;10.176;2023-02-08T04:16:34;-5.50;99.90
17202;DHT22;8717;53.588;10.176;2023-02-08T04:19:00;-5.50;99.90
17202;DHT22;8717;53.588;10.176;2023-02-08T04:21:29;-5.50;99.90
17202;DHT22;8717;53.588;10.176;2023-02-08T04:23:56;-5.50;99.90
17202;DHT22;8717;53.588;10.176;2023-02-08T04:26:22;-5.50;99.90
17202;DHT22;8717;53.588;10.176;2023-02-08T04:28:49;-5.50;99.90
17202;DHT22;8717;53.588;10.176;2023-02-08T04:31:16;-5.50;99.90
17202;DHT22;8717;53.588;10.176;2023-02-08T04:33:42;-5.60;99.90
17202;DHT22;8717;53.588;10.176;2023-02-08T04:36:09;-5.50;99.90
17202;DHT22;8717;53.588;10.176;2023-02-08T04:38:37;-5.50;99.90
17202;DHT22;8717;53.588;10.176;2023-02-08T04:41:04;-5.50;99.90
17202;DHT22;8717;53.588;10.176;2023-02-08T04:43:31;-5.50;99.90
17202;DHT22;8717;53.588;10.176;2023-02-08T04:45:57;-5.50;99.90
17202;DHT22;8717;53.588;10.176;2023-02-08T04:48:24;-5.50;99.90
17202;DHT22;8717;53.588;10.176;2023-02-08T04:50:54;-5.50;99.90
17202;DHT22;8717;53.588;10.176;2023-02-08T04:53:21;-5.40;99.90
17202;DHT22;8717;53.588;10.176;2023-02-08T04:55:50;-5.40;99.90
17202;DHT22;8717;53.588;10.176;2023-02-08T04:58:18;-5.40;99.90
17202;DHT22;8717;53.588;10.176;2023-02-08T05:00:45;-5.40;99.90
17202;DHT22;8717;53.588;10.176;2023-02-08T05:03:15;-5.40;99.90
17202;DHT22;8717;53.588;10.176;2023-02-08T05:05:41;-5.40;99.90
17202;DHT22;8717;53.588;10.176;2023-02-08T05:08:08;-5.50;99.90
17202;DHT22;8717;53.588;10.176;2023-02-08T05:10:35;-5.40;99.90
17202;DHT22;8717;53.588;10.176;2023-02-08T05:13:03;-5.40;99.90
17202;DHT22;8717;53.588;10.176;2023-02-08T05:15:30;-5.40;99.90
17202;DHT22;8717;53.588;10.176;2023-02-08T05:17:56;-5.40;99.90
17202;DHT22;8717;53.588;10.176;2023-02-08T05:20:23;-5.50;99.90
17202;DHT22;8717;53.588;10.176;2023-02-08T05:22:50;-5.50;99.90
17202;DHT22;8717;53.588;10.176;2023-02-08T05:25:17;-5.50;99.90
17202;DHT22;8717;53.588;10.176;2023-02-08T05:27:43;-5.50;99.90
17202;DHT22;8717;53.588;10.176;2023-02-08T05:30:12;-5.50;99.90
17202;DHT22;8717;53.588;10.176;2023-02-08T05:32:39;-5.50;99.90
17202;DHT22;8717;53.588;10.176;2023-02-08T05:35:06;-5.60;99.90
17202;DHT22;8717;53.588;10.176;2023-02-08T05:37:33;-5.50;99.90
17202;DHT22;8717;53.588;10.176;2023-02-08T05:40:00;-5.60;99.90
17202;DHT22;8717;53.588;10.176;2023-02-08T05:42:27;-5.60;99.90
17202;DHT22;8717;53.588;10.176;2023-02-08T05:44:54;-5.60;99.90
17202;DHT22;8717;53.588;10.176;2023-02-08T05:47:22;-5.70;99.90
17202;DHT22;8717;53.588;10.176;2023-02-08T05:49:49;-5.60;99.90
17202;DHT22;8717;53.588;10.176;2023-02-08T05:52:16;-5.70;99.90
17202;DHT22;8717;53.588;10.176;2023-02-08T05:54:42;-5.70;99.90
17202;DHT22;8717;53.588;10.176;2023-02-08T05:57:09;-5.70;99.90
17202;DHT22;8717;53.588;10.176;2023-02-08T05:59:36;-5.70;99.90
17202;DHT22;8717;53.588;10.176;2023-02-08T06:02:02;-5.70;99.90
17202;DHT22;8717;53.588;10.176;2023-02-08T06:04:30;-5.70;99.90
17202;DHT22;8717;53.588;10.176;2023-02-08T06:06:57;-5.70;99.90
17202;DHT22;8717;53.588;10.176;2023-02-08T06:09:24;-5.70;99.90
17202;DHT22;8717;53.588;10.176;2023-02-08T06:11:50;-5.70;99.90
17202;DHT22;8717;53.588;10.176;2023-02-08T06:14:17;-5.70;99.90
17202;DHT22;8717;53.588;10.176;2023-02-08T06:16:44;-5.70;99.90
17202;DHT22;8717;53.588;10.176;2023-02-08T06:19:11;-5.70;99.90
17202;DHT22;8717;53.588;10.176;2023-02-08T06:21:39;-5.60;99.90
17202;DHT22;8717;53.588;10.176;2023-02-08T06:24:09;-5.60;99.90
17202;DHT22;8717;53.588;10.176;2023-02-08T06:26:36;-5.60;99.90
17202;DHT22;8717;53.588;10.176;2023-02-08T06:29:02;-5.70;99.90
17202;DHT22;8717;53.588;10.176;2023-02-08T06:31:29;-5.70;99.90
17202;DHT22;8717;53.588;10.176;2023-02-08T06:33:56;-5.60;99.90
17202;DHT22;8717;53.588;10.176;2023-02-08T06:36:23;-5.60;99.90
17202;DHT22;8717;53.588;10.176;2023-02-08T06:38:51;-5.70;99.90
17202;DHT22;8717;53.588;10.176;2023-02-08T06:41:17;-5.70;99.90
17202;DHT22;8717;53.588;10.176;2023-02-08T06:43:44;-5.70;99.90
17202;DHT22;8717;53.588;10.176;2023-02-08T06:46:11;-5.70;99.90
17202;DHT22;8717;53.588;10.176;2023-02-08T06:48:38;-5.70;99.90
17202;DHT22;8717;53.588;10.176;2023-02-08T06:51:04;-5.70;99.90
17202;DHT22;8717;53.588;10.176;2023-02-08T06:53:31;-5.70;99.90
17202;DHT22;8717;53.588;10.176;2023-02-08T06:55:59;-5.70;99.90
17202;DHT22;8717;53.588;10.176;2023-02-08T06:58:26;-5.70;99.90
17202;DHT22;8717;53.588;10.176;2023-02-08T07:00:53;-5.80;99.90
17202;DHT22;8717;53.588;10.176;2023-02-08T07:03:22;-5.70;99.90
17202;DHT22;8717;53.588;10.176;2023-02-08T07:05:49;-5.80;99.90
17202;DHT22;8717;53.588;10.176;2023-02-08T07:08:15;-5.80;99.90
17202;DHT22;8717;53.588;10.176;2023-02-08T07:10:42;-5.80;99.90
17202;DHT22;8717;53.588;10.176;2023-02-08T07:13:10;-5.70;99.90
17202;DHT22;8717;53.588;10.176;2023-02-08T07:15:39;-5.70;99.90
17202;DHT22;8717;53.588;10.176;2023-02-08T07:18:06;-5.70;99.90
17202;DHT22;8717;53.588;10.176;2023-02-08T07:20:33;-5.70;99.90
17202;DHT22;8717;53.588;10.176;2023-02-08T07:22:59;-5.70;99.90
17202;DHT22;8717;53.588;10.176;2023-02-08T07:25:29;-5.70;99.90
17202;DHT22;8717;53.588;10.176;2023-02-08T07:27:56;-5.60;99.90
17202;DHT22;8717;53.588;10.176;2023-02-08T07:30:24;-5.60;99.90
17202;DHT22;8717;53.588;10.176;2023-02-08T07:32:50;-5.50;99.90
17202;DHT22;8717;53.588;10.176;2023-02-08T07:35:17;-5.50;99.90
17202;DHT22;8717;53.588;10.176;2023-02-08T07:37:44;-5.30;99.90
17202;DHT22;8717;53.588;10.176;2023-02-08T07:40:12;-5.30;99.90
17202;DHT22;8717;53.588;10.176;2023-02-08T07:42:40;-5.10;99.90
17202;DHT22;8717;53.588;10.176;2023-02-08T07:45:18;-5.00;99.90
17202;DHT22;8717;53.588;10.176;2023-02-08T07:47:49;-4.90;99.90
17202;DHT22;8717;53.588;10.176;2023-02-08T07:50:16;-4.80;99.90
17202;DHT22;8717;53.588;10.176;2023-02-08T07:52:42;-4.80;99.90
17202;DHT22;8717;53.588;10.176;2023-02-08T07:55:12;-4.70;99.90
17202;DHT22;8717;53.588;10.176;2023-02-08T07:57:41;-4.50;99.90
17202;DHT22;8717;53.588;10.176;2023-02-08T08:00:10;-4.40;99.90
17202;DHT22;8717;53.588;10.176;2023-02-08T08:02:40;-4.30;99.90
17202;DHT22;8717;53.588;10.176;2023-02-08T08:05:09;-4.20;99.90
17202;DHT22;8717;53.588;10.176;2023-02-08T08:07:36;-4.10;99.90
17202;DHT22;8717;53.588;10.176;2023-02-08T08:10:04;-4.00;99.90
17202;DHT22;8717;53.588;10.176;2023-02-08T08:12:32;-3.90;99.90
17202;DHT22;8717;53.588;10.176;2023-02-08T08:14:59;-3.90;99.90
17202;DHT22;8717;53.588;10.176;2023-02-08T08:17:28;-3.80;99.90
17202;DHT22;8717;53.588;10.176;2023-02-08T08:19:55;-3.80;99.90
17202;DHT22;8717;53.588;10.176;2023-02-08T08:22:23;-3.70;99.90
17202;DHT22;8717;53.588;10.176;2023-02-08T08:24:50;-3.70;99.90
17202;DHT22;8717;53.588;10.176;2023-02-08T08:27:18;-3.60;99.90
17202;DHT22;8717;53.588;10.176;2023-02-08T08:29:45;-3.50;99.90
17202;DHT22;8717;53.588;10.176;2023-02-08T08:32:12;-3.40;99.90
17202;DHT22;8717;53.588;10.176;2023-02-08T08:34:38;-3.20;99.90
17202;DHT22;8717;53.588;10.176;2023-02-08T08:37:08;-3.00;99.90
17202;DHT22;8717;53.588;10.176;2023-02-08T08:39:36;-2.80;99.90
17202;DHT22;8717;53.588;10.176;2023-02-08T08:42:03;-2.60;99.90
17202;DHT22;8717;53.588;10.176;2023-02-08T08:44:30;-2.30;99.90
17202;DHT22;8717;53.588;10.176;2023-02-08T08:47:00;-2.10;99.90
17202;DHT22;8717;53.588;10.176;2023-02-08T08:49:28;-1.70;99.90
17202;DHT22;8717;53.588;10.176;2023-02-08T08:51:56;-1.30;99.90
17202;DHT22;8717;53.588;10.176;2023-02-08T08:54:23;-0.80;99.90
17202;DHT22;8717;53.588;10.176;2023-02-08T08:56:51;-0.30;99.90
17202;DHT22;8717;53.588;10.176;2023-02-08T08:59:18;0.10;99.90
17202;DHT22;8717;53.588;10.176;2023-02-08T09:01:47;0.60;99.90
17202;DHT22;8717;53.588;10.176;2023-02-08T09:04:19;1.00;99.90
17202;DHT22;8717;53.588;10.176;2023-02-08T09:06:47;1.50;99.90
17202;DHT22;8717;53.588;10.176;2023-02-08T09:09:14;1.90;99.90
17202;DHT22;8717;53.588;10.176;2023-02-08T09:11:41;2.30;99.90
17202;DHT22;8717;53.588;10.176;2023-02-08T09:14:09;2.80;99.90
17202;DHT22;8717;53.588;10.176;2023-02-08T09:16:36;3.20;99.90
17202;DHT22;8717;53.588;10.176;2023-02-08T09:19:04;3.70;99.90
17202;DHT22;8717;53.588;10.176;2023-02-08T09:21:32;4.10;99.90
17202;DHT22;8717;53.588;10.176;2023-02-08T09:23:59;4.50;99.90
17202;DHT22;8717;53.588;10.176;2023-02-08T09:26:28;4.80;99.40
17202;DHT22;8717;53.588;10.176;2023-02-08T09:28:55;5.00;98.20
17202;DHT22;8717;53.588;10.176;2023-02-08T09:31:25;5.10;97.90
17202;DHT22;8717;53.588;10.176;2023-02-08T09:33:54;5.10;96.00
17202;DHT22;8717;53.588;10.176;2023-02-08T09:36:22;5.00;97.90
17202;DHT22;8717;53.588;10.176;2023-02-08T09:38:49;5.10;98.90
17202;DHT22;8717;53.588;10.176;2023-02-08T09:41:27;5.20;99.90
17202;DHT22;8717;53.588;10.176;2023-02-08T09:44:08;5.40;98.70
17202;DHT22;8717;53.588;10.176;2023-02-08T09:46:40;5.50;95.40
17202;DHT22;8717;53.588;10.176;2023-02-08T09:49:13;5.60;95.60
17202;DHT22;8717;53.588;10.176;2023-02-08T09:51:44;5.70;96.30
17202;DHT22;8717;53.588;10.176;2023-02-08T09:54:18;5.80;95.30
17202;DHT22;8717;53.588;10.176;2023-02-08T09:56:51;5.80;95.60
17202;DHT22;8717;53.588;10.176;2023-02-08T09:59:22;5.90;95.90
17202;DHT22;8717;53.588;10.176;2023-02-08T10:01:55;6.00;96.90
17202;DHT22;8717;53.588;10.176;2023-02-08T10:04:29;6.10;94.50
17202;DHT22;8717;53.588;10.176;2023-02-08T10:07:01;6.10;94.30
17202;DHT22;8717;53.588;10.176;2023-02-08T10:09:28;6.20;95.10
17202;DHT22;8717;53.588;10.176;2023-02-08T10:12:07;6.20;95.00
17202;DHT22;8717;53.588;10.176;2023-02-08T10:14:58;6.10;94.50
17202;DHT22;8717;53.588;10.176;2023-02-08T10:17:48;6.10;92.80
17202;DHT22;8717;53.588;10.176;2023-02-08T10:20:30;6.10;92.60
17202;DHT22;8717;53.588;10.176;2023-02-08T10:23:10;6.00;93.30
17202;DHT22;8717;53.588;10.176;2023-02-08T10:26:04;6.10;94.60
17202;DHT22;8717;53.588;10.176;2023-02-08T10:28:54;6.10;92.30
17202;DHT22;8717;53.588;10.176;2023-02-08T10:31:30;6.10;95.00
17202;DHT22;8717;53.588;10.176;2023-02-08T10:34:03;6.10;95.10
17202;DHT22;8717;53.588;10.176;2023-02-08T10:36:38;6.20;94.50
17202;DHT22;8717;53.588;10.176;2023-02-08T10:39:14;6.20;94.50
17202;DHT22;8717;53.588;10.176;2023-02-08T10:41:43;6.30;93.30
17202;DHT22;8717;53.588;10.176;2023-02-08T10:44:19;6.30;93.90
17202;DHT22;8717;53.588;10.176;2023-02-08T10:46:57;6.40;93.00
17202;DHT22;8717;53.588;10.176;2023-02-08T10:49:41;6.50;92.00
17202;DHT22;8717;53.588;10.176;2023-02-08T10:52:10;6.50;93.20
17202;DHT22;8717;53.588;10.176;2023-02-08T10:54:38;6.50;94.10
17202;DHT22;8717;53.588;10.176;2023-02-08T10:57:10;6.50;92.40
17202;DHT22;8717;53.588;10.176;2023-02-08T10:59:46;6.50;92.00
17202;DHT22;8717;53.588;10.176;2023-02-08T11:02:21;6.40;90.80
17202;DHT22;8717;53.588;10.176;2023-02-08T11:04:58;6.30;84.50
17202;DHT22;8717;53.588;10.176;2023-02-08T11:07:25;6.20;90.10
17202;DHT22;8717;53.588;10.176;2023-02-08T11:09:52;6.00;87.50
17202;DHT22;8717;53.588;10.176;2023-02-08T11:12:20;5.80;87.70
17202;DHT22;8717;53.588;10.176;2023-02-08T11:14:50;5.70;90.40
17202;DHT22;8717;53.588;10.176;2023-02-08T11:17:27;5.60;87.20
17202;DHT22;8717;53.588;10.176;2023-02-08T11:19:54;5.50;84.20
17202;DHT22;8717;53.588;10.176;2023-02-08T11:22:24;5.40;86.10
17202;DHT22;8717;53.588;10.176;2023-02-08T11:24:57;5.30;85.40
17202;DHT22;8717;53.588;10.176;2023-02-08T11:27:32;5.20;89.00
17202;DHT22;8717;53.588;10.176;2023-02-08T11:30:17;5.20;89.80
17202;DHT22;8717;53.588;10.176;2023-02-08T11:32:45;5.20;89.00
17202;DHT22;8717;53.588;10.176;2023-02-08T11:35:19;5.10;86.90
17202;DHT22;8717;53.588;10.176;2023-02-08T11:37:48;5.10;84.30
17202;DHT22;8717;53.588;10.176;2023-02-08T11:40:20;5.00;81.40
17202;DHT22;8717;53.588;10.176;2023-02-08T11:42:47;4.90;85.80
17202;DHT22;8717;53.588;10.176;2023-02-08T11:45:19;4.90;88.30
17202;DHT22;8717;53.588;10.176;2023-02-08T11:47:47;4.90;88.30
17202;DHT22;8717;53.588;10.176;2023-02-08T11:50:24;5.00;88.30
17202;DHT22;8717;53.588;10.176;2023-02-08T11:52:57;5.00;86.30
17202;DHT22;8717;53.588;10.176;2023-02-08T11:55:28;5.10;85.80
17202;DHT22;8717;53.588;10.176;2023-02-08T11:57:59;5.10;85.70
17202;DHT22;8717;53.588;10.176;2023-02-08T12:00:28;5.10;84.30
17202;DHT22;8717;53.588;10.176;2023-02-08T12:02:58;5.10;84.00
17202;DHT22;8717;53.588;10.176;2023-02-08T12:05:33;5.10;87.50
17202;DHT22;8717;53.588;10.176;2023-02-08T12:08:06;5.10;81.40
17202;DHT22;8717;53.588;10.176;2023-02-08T12:10:50;5.10;82.50
17202;DHT22;8717;53.588;10.176;2023-02-08T12:16:20;5.10;82.60
17202;DHT22;8717;53.588;10.176;2023-02-08T12:19:20;5.10;86.60
17202;DHT22;8717;53.588;10.176;2023-02-08T12:21:55;5.00;82.50
17202;DHT22;8717;53.588;10.176;2023-02-08T12:24:34;5.10;86.40
17202;DHT22;8717;53.588;10.176;2023-02-08T12:27:12;5.10;86.00
17202;DHT22;8717;53.588;10.176;2023-02-08T12:29:43;5.20;85.80
17202;DHT22;8717;53.588;10.176;2023-02-08T12:32:27;5.20;86.70
17202;DHT22;8717;53.588;10.176;2023-02-08T12:35:03;5.30;85.50
17202;DHT22;8717;53.588;10.176;2023-02-08T12:37:41;5.20;82.50
17202;DHT22;8717;53.588;10.176;2023-02-08T12:40:40;5.30;82.30
17202;DHT22;8717;53.588;10.176;2023-02-08T12:43:33;5.20;82.40
17202;DHT22;8717;53.588;10.176;2023-02-08T12:46:18;5.10;77.80
17202;DHT22;8717;53.588;10.176;2023-02-08T12:49:12;5.00;78.20
17202;DHT22;8717;53.588;10.176;2023-02-08T12:51:49;5.00;81.10
17202;DHT22;8717;53.588;10.176;2023-02-08T12:54:26;5.00;80.80
17202;DHT22;8717;53.588;10.176;2023-02-08T12:56:57;5.00;82.60
17202;DHT22;8717;53.588;10.176;2023-02-08T12:59:27;4.90;81.80
17202;DHT22;8717;53.588;10.176;2023-02-08T13:01:59;4.90;81.50
17202;DHT22;8717;53.588;10.176;2023-02-08T13:04:31;4.90;80.50
17202;DHT22;8717;53.588;10.176;2023-02-08T13:07:09;5.00;81.20
17202;DHT22;8717;53.588;10.176;2023-02-08T13:09:41;5.00;80.70
17202;DHT22;8717;53.588;10.176;2023-02-08T13:12:14;5.00;84.00
17202;DHT22;8717;53.588;10.176;2023-02-08T13:14:44;5.10;83.00
17202;DHT22;8717;53.588;10.176;2023-02-08T13:17:15;5.10;80.60
17202;DHT22;8717;53.588;10.176;2023-02-08T13:19:49;5.10;84.00
17202;DHT22;8717;53.588;10.176;2023-02-08T13:22:26;5.20;80.00
17202;DHT22;8717;53.588;10.176;2023-02-08T13:24:54;5.30;82.10
17202;DHT22;8717;53.588;10.176;2023-02-08T13:27:22;5.30;79.90
17202;DHT22;8717;53.588;10.176;2023-02-08T13:29:50;5.30;80.70
17202;DHT22;8717;53.588;10.176;2023-02-08T13:32:22;5.30;77.90
17202;DHT22;8717;53.588;10.176;2023-02-08T13:34:57;5.30;80.00
17202;DHT22;8717;53.588;10.176;2023-02-08T13:37:25;5.20;80.60
17202;DHT22;8717;53.588;10.176;2023-02-08T13:39:58;5.30;81.60
17202;DHT22;8717;53.588;10.176;2023-02-08T13:42:29;5.30;81.30
17202;DHT22;8717;53.588;10.176;2023-02-08T13:45:00;5.20;79.80
17202;DHT22;8717;53.588;10.176;2023-02-08T13:47:30;5.10;78.40
17202;DHT22;8717;53.588;10.176;2023-02-08T13:49:59;5.10;82.20
17202;DHT22;8717;53.588;10.176;2023-02-08T13:52:46;5.20;82.90
17202;DHT22;8717;53.588;10.176;2023-02-08T13:58:34;5.20;82.50
17202;DHT22;8717;53.588;10.176;2023-02-08T14:01:13;5.20;85.30
17202;DHT22;8717;53.588;10.176;2023-02-08T14:03:40;5.20;82.70
17202;DHT22;8717;53.588;10.176;2023-02-08T14:06:14;5.20;82.80
17202;DHT22;8717;53.588;10.176;2023-02-08T14:08:54;5.20;81.70
17202;DHT22;8717;53.588;10.176;2023-02-08T14:11:32;5.20;81.80
17202;DHT22;8717;53.588;10.176;2023-02-08T14:14:05;5.20;81.60
17202;DHT22;8717;53.588;10.176;2023-02-08T14:16:34;5.20;83.10
17202;DHT22;8717;53.588;10.176;2023-02-08T14:19:02;5.10;83.50
17202;DHT22;8717;53.588;10.176;2023-02-08T14:21:33;5.10;80.40
17202;DHT22;8717;53.588;10.176;2023-02-08T14:24:03;5.00;81.20
17202;DHT22;8717;53.588;10.176;2023-02-08T14:26:31;5.00;84.00
17202;DHT22;8717;53.588;10.176;2023-02-08T14:29:00;4.90;83.80
17202;DHT22;8717;53.588;10.176;2023-02-08T14:31:40;4.90;86.00
17202;DHT22;8717;53.588;10.176;2023-02-08T14:34:21;4.90;84.40
17202;DHT22;8717;53.588;10.176;2023-02-08T14:36:58;4.90;83.40
17202;DHT22;8717;53.588;10.176;2023-02-08T14:39:26;4.80;82.70
17202;DHT22;8717;53.588;10.176;2023-02-08T14:42:00;4.80;83.10
17202;DHT22;8717;53.588;10.176;2023-02-08T14:45:00;4.70;83.00
17202;DHT22;8717;53.588;10.176;2023-02-08T14:47:54;4.60;83.80
17202;DHT22;8717;53.588;10.176;2023-02-08T14:50:25;4.60;83.50
17202;DHT22;8717;53.588;10.176;2023-02-08T14:53:05;4.60;86.00
17202;DHT22;8717;53.588;10.176;2023-02-08T14:55:44;4.50;85.00
17202;DHT22;8717;53.588;10.176;2023-02-08T14:58:26;4.50;84.10
17202;DHT22;8717;53.588;10.176;2023-02-08T15:01:00;4.50;86.90
17202;DHT22;8717;53.588;10.176;2023-02-08T15:03:30;4.40;87.00
17202;DHT22;8717;53.588;10.176;2023-02-08T15:06:18;4.30;87.90
17202;DHT22;8717;53.588;10.176;2023-02-08T15:08:51;4.20;88.00
17202;DHT22;8717;53.588;10.176;2023-02-08T15:11:21;4.10;88.80
17202;DHT22;8717;53.588;10.176;2023-02-08T15:13:49;4.00;89.80
17202;DHT22;8717;53.588;10.176;2023-02-08T15:16:26;4.00;90.10
17202;DHT22;8717;53.588;10.176;2023-02-08T15:18:56;3.90;90.50
17202;DHT22;8717;53.588;10.176;2023-02-08T15:21:28;3.80;90.30
17202;DHT22;8717;53.588;10.176;2023-02-08T15:24:01;3.70;90.80
17202;DHT22;8717;53.588;10.176;2023-02-08T15:26:29;3.60;90.70
17202;DHT22;8717;53.588;10.176;2023-02-08T15:28:56;3.60;91.10
17202;DHT22;8717;53.588;10.176;2023-02-08T15:31:26;3.50;91.10
17202;DHT22;8717;53.588;10.176;2023-02-08T15:33:57;3.40;91.30
17202;DHT22;8717;53.588;10.176;2023-02-08T15:36:28;3.40;91.30
17202;DHT22;8717;53.588;10.176;2023-02-08T15:38:57;3.30;91.40
17202;DHT22;8717;53.588;10.176;2023-02-08T15:41:26;3.20;92.00
17202;DHT22;8717;53.588;10.176;2023-02-08T15:44:00;3.20;92.10
17202;DHT22;8717;53.588;10.176;2023-02-08T15:46:28;3.00;91.80
17202;DHT22;8717;53.588;10.176;2023-02-08T15:48:58;3.00;92.30
17202;DHT22;8717;53.588;10.176;2023-02-08T15:51:25;2.90;92.50
17202;DHT22;8717;53.588;10.176;2023-02-08T15:53:53;2.80;92.30
17202;DHT22;8717;53.588;10.176;2023-02-08T15:56:24;2.70;92.70
17202;DHT22;8717;53.588;10.176;2023-02-08T15:58:53;2.70;92.80
17202;DHT22;8717;53.588;10.176;2023-02-08T16:01:21;2.60;93.00
17202;DHT22;8717;53.588;10.176;2023-02-08T16:03:50;2.50;92.90
17202;DHT22;8717;53.588;10.176;2023-02-08T16:06:23;2.40;93.40
17202;DHT22;8717;53.588;10.176;2023-02-08T16:08:52;2.40;93.70
17202;DHT22;8717;53.588;10.176;2023-02-08T16:11:23;2.30;93.80
17202;DHT22;8717;53.588;10.176;2023-02-08T16:13:56;2.30;94.00
17202;DHT22;8717;53.588;10.176;2023-02-08T16:16:39;2.20;94.20